createdAt,value
2023-08-23T00:02:05.038Z,22.98
2023-08-23T00:07:07.847Z,27.98
2023-08-23T00:12:12.340Z,25.63
2023-08-23T00:17:15.220Z,28.00
2023-08-23T00:22:18.045Z,29.08
2023-08-23T00:27:22.318Z,24.92
2023-08-23T00:32:25.169Z,28.30
2023-08-23T00:37:27.954Z,30.33
2023-08-23T00:42:32.291Z,29.40
2023-08-23T00:47:35.695Z,25.02
2023-08-23T00:52:52.154Z,22.52
2023-08-23T00:57:59.414Z,23.95
2023-08-23T01:03:02.638Z,20.45
2023-08-23T01:08:15.118Z,22.05
2023-08-23T01:13:29.366Z,22.55
2023-08-23T01:18:33.394Z,23.00
2023-08-23T01:23:38.370Z,21.80
2023-08-23T01:28:41.201Z,26.35
2023-08-23T01:33:49.511Z,25.02
2023-08-23T01:38:54.744Z,24.25
2023-08-23T01:43:57.500Z,24.73
2023-08-23T01:49:00.288Z,25.08
2023-08-23T01:54:04.662Z,27.80
2023-08-23T01:59:07.679Z,23.33
2023-08-23T02:04:10.467Z,25.90
2023-08-23T02:09:15.129Z,29.25
2023-08-23T02:14:17.979Z,23.85
2023-08-23T02:19:20.769Z,23.98
2023-08-23T02:24:24.901Z,23.40
2023-08-23T02:29:27.742Z,20.63
2023-08-23T02:34:30.599Z,22.88
2023-08-23T02:39:34.724Z,20.85
2023-08-23T02:44:38.061Z,19.00
2023-08-23T02:49:40.860Z,25.48
2023-08-23T02:54:47.273Z,23.60
2023-08-23T02:59:50.079Z,19.92
2023-08-23T03:04:53.768Z,24.75
2023-08-23T03:09:57.930Z,25.08
2023-08-23T03:15:00.795Z,22.83
2023-08-23T03:20:03.879Z,24.05
2023-08-23T03:25:10.329Z,26.60
2023-08-23T03:30:13.840Z,22.27
2023-08-23T03:35:17.803Z,23.05
2023-08-23T03:40:21.925Z,24.60
2023-08-23T03:45:24.679Z,25.80
2023-08-23T03:50:27.451Z,25.20
2023-08-23T03:55:32.200Z,28.92
2023-08-23T04:00:35.161Z,29.58
2023-08-23T04:05:41.974Z,28.45
2023-08-23T04:10:49.338Z,30.38
2023-08-23T04:15:52.135Z,29.07
2023-08-23T04:21:00.467Z,27.83
2023-08-23T04:26:05.309Z,25.38
2023-08-23T04:31:08.144Z,23.08
2023-08-23T04:36:25.100Z,23.48
2023-08-23T04:41:29.314Z,20.90
2023-08-23T04:46:32.119Z,23.13
2023-08-23T04:51:35.039Z,22.08
2023-08-23T04:56:40.016Z,24.52
2023-08-23T05:01:43.096Z,26.58
2023-08-23T05:06:46.002Z,27.27
2023-08-23T05:11:53.347Z,21.50
2023-08-23T05:16:57.356Z,23.73
2023-08-23T05:22:00.216Z,25.50
2023-08-23T05:27:04.512Z,20.38
2023-08-23T05:32:08.613Z,23.35
2023-08-23T05:37:11.568Z,24.42
2023-08-23T05:42:15.843Z,19.73
2023-08-23T05:47:18.681Z,19.02
2023-08-23T05:52:21.890Z,18.88
2023-08-23T05:57:26.072Z,18.10
2023-08-23T06:02:29.210Z,17.75
2023-08-23T06:07:32.047Z,14.82
2023-08-23T06:12:36.155Z,13.85
2023-08-23T06:17:38.986Z,13.68
2023-08-23T06:22:41.796Z,15.57
2023-08-23T06:27:46.781Z,13.48
2023-08-23T06:32:51.108Z,12.93
2023-08-23T06:37:54.191Z,11.40
2023-08-23T06:42:58.341Z,15.00
2023-08-23T06:48:01.206Z,12.02
2023-08-23T06:53:04.035Z,10.98
2023-08-23T06:58:08.761Z,9.05
2023-08-23T07:03:11.606Z,11.82
2023-08-23T07:08:14.440Z,8.48
2023-08-23T07:13:18.569Z,8.85
2023-08-23T07:18:21.332Z,8.40
2023-08-23T07:23:24.183Z,10.60
2023-08-23T07:28:29.480Z,6.57
2023-08-23T07:33:32.318Z,7.00
2023-08-23T07:38:35.195Z,4.60
2023-08-23T07:43:39.588Z,5.15
2023-08-23T07:48:42.556Z,6.20
2023-08-23T07:53:45.337Z,4.32
2023-08-23T07:58:49.612Z,6.80
2023-08-23T08:03:52.925Z,3.60
2023-08-23T08:08:55.734Z,4.78
2023-08-23T08:13:59.893Z,2.38
2023-08-23T08:19:02.670Z,2.80
2023-08-23T08:24:05.968Z,7.70
2023-08-23T08:29:10.089Z,3.58
2023-08-23T08:34:12.902Z,7.53
2023-08-23T08:39:15.712Z,5.18
2023-08-23T08:44:20.148Z,4.35
2023-08-23T08:49:22.934Z,3.47
2023-08-23T08:54:26.642Z,5.70
2023-08-23T08:59:31.587Z,6.25
2023-08-23T09:04:34.343Z,3.78
2023-08-23T09:09:37.423Z,3.35
2023-08-23T09:14:41.590Z,3.40
2023-08-23T09:19:44.380Z,2.45
2023-08-23T09:24:47.211Z,2.10
2023-08-23T09:29:54.660Z,4.93
2023-08-23T09:34:58.815Z,4.72
2023-08-23T09:40:01.827Z,4.32
2023-08-23T09:45:07.085Z,3.15
2023-08-23T09:50:11.356Z,4.35
2023-08-23T09:55:15.658Z,3.05
2023-08-23T10:00:20.646Z,3.97
2023-08-23T10:05:26.419Z,2.42
2023-08-23T10:10:32.915Z,4.70
2023-08-23T10:15:39.686Z,5.10
2023-08-23T10:20:44.525Z,3.83
2023-08-23T10:25:48.723Z,3.00
2023-08-23T10:31:01.084Z,3.65
2023-08-23T10:36:10.428Z,2.33
2023-08-23T10:41:18.599Z,2.25
2023-08-23T10:46:24.492Z,3.08
2023-08-23T10:51:27.355Z,2.75
2023-08-23T10:56:30.666Z,4.32
2023-08-23T11:01:35.013Z,4.60
2023-08-23T11:06:37.942Z,7.18
2023-08-23T11:11:40.712Z,4.95
2023-08-23T11:16:45.615Z,2.38
2023-08-23T11:21:48.521Z,2.95
2023-08-23T11:26:51.301Z,3.20
2023-08-23T11:31:56.818Z,3.85
2023-08-23T11:36:59.667Z,3.05
2023-08-23T11:42:03.745Z,3.80
2023-08-23T11:47:07.990Z,4.75
2023-08-23T11:52:11.522Z,5.95
2023-08-23T11:57:16.480Z,3.60
2023-08-23T12:02:20.648Z,4.93
2023-08-23T12:07:23.407Z,5.65
2023-08-23T12:12:26.403Z,2.80
2023-08-23T12:17:30.590Z,3.45
2023-08-23T12:22:33.369Z,3.28
2023-08-23T12:27:36.247Z,4.25
2023-08-23T12:32:40.519Z,2.97
2023-08-23T12:37:43.523Z,2.00
2023-08-23T12:42:46.301Z,6.10
2023-08-23T12:47:50.871Z,5.32
2023-08-23T12:52:54.038Z,4.22
2023-08-23T12:57:56.795Z,2.08
2023-08-23T13:03:01.306Z,3.28
2023-08-23T13:08:04.806Z,5.18
2023-08-23T13:13:07.746Z,3.33
2023-08-23T13:18:11.909Z,2.38
2023-08-23T13:23:14.925Z,2.88
2023-08-23T13:28:17.966Z,4.40
2023-08-23T13:33:22.092Z,4.22
2023-08-23T13:38:24.930Z,10.15
2023-08-23T13:43:28.480Z,2.65
2023-08-23T13:48:32.667Z,3.17
2023-08-23T13:53:35.758Z,5.05
2023-08-23T13:58:38.535Z,4.88
2023-08-23T14:03:42.662Z,3.05
2023-08-23T14:08:45.407Z,3.42
2023-08-23T14:13:48.202Z,4.90
2023-08-23T14:18:52.319Z,2.97
2023-08-23T14:23:55.091Z,5.90
2023-08-23T14:28:57.856Z,2.55
2023-08-23T14:34:01.986Z,3.05
2023-08-23T14:39:05.127Z,2.88
2023-08-23T14:44:08.045Z,3.40
2023-08-23T14:49:14.898Z,2.05
2023-08-23T14:54:17.705Z,2.67
2023-08-23T14:59:20.571Z,2.42
2023-08-23T15:04:24.770Z,3.03
2023-08-23T15:09:27.539Z,6.70
2023-08-23T15:14:30.329Z,4.60
2023-08-23T15:19:34.573Z,2.90
2023-08-23T15:24:42.302Z,3.28
2023-08-23T15:30:01.100Z,5.22
2023-08-23T15:35:11.188Z,3.25
2023-08-23T15:40:13.995Z,2.92
2023-08-23T15:45:19.611Z,4.10
2023-08-23T15:50:24.366Z,2.90
2023-08-23T15:55:27.738Z,5.57
2023-08-23T16:00:30.920Z,6.32
2023-08-23T16:05:35.052Z,3.90
2023-08-23T16:10:41.350Z,3.35
2023-08-23T16:15:44.250Z,6.32
2023-08-23T16:20:50.630Z,3.10
2023-08-23T16:25:56.354Z,2.80
2023-08-23T16:30:59.296Z,4.72
2023-08-23T16:36:04.006Z,2.83
2023-08-23T16:41:06.838Z,5.72
2023-08-23T16:46:09.949Z,5.80
2023-08-23T16:51:14.113Z,4.82
2023-08-23T16:56:16.841Z,6.75
2023-08-23T17:01:19.703Z,4.50
2023-08-23T17:06:24.371Z,5.55
2023-08-23T17:11:27.154Z,4.55
2023-08-23T17:16:31.002Z,4.43
2023-08-23T17:21:36.033Z,5.47
2023-08-23T17:26:38.838Z,4.68
2023-08-23T17:31:50.558Z,4.43
2023-08-23T17:36:54.973Z,4.25
2023-08-23T17:41:57.843Z,6.10
2023-08-23T17:47:06.371Z,4.40
2023-08-23T17:52:10.752Z,5.85
2023-08-23T17:57:13.525Z,6.45
2023-08-23T18:02:16.339Z,5.47
2023-08-23T18:07:20.502Z,6.70
2023-08-23T18:12:23.484Z,7.47
2023-08-23T18:17:26.332Z,6.43
2023-08-23T18:22:30.525Z,7.95
2023-08-23T18:27:33.391Z,6.32
2023-08-23T18:32:36.231Z,6.05
2023-08-23T18:37:40.523Z,7.80
2023-08-23T18:42:43.296Z,7.05
2023-08-23T18:47:48.153Z,5.50
2023-08-23T18:52:53.592Z,3.72
2023-08-23T18:57:56.428Z,7.70
2023-08-23T19:02:59.302Z,5.53
2023-08-23T19:08:03.622Z,6.50
2023-08-23T19:13:06.394Z,5.03
2023-08-23T19:18:10.013Z,4.70
2023-08-23T19:23:14.271Z,6.13
2023-08-23T19:28:17.134Z,6.10
2023-08-23T19:33:19.964Z,6.43
2023-08-23T19:38:24.210Z,6.80
2023-08-23T19:43:27.342Z,4.50
2023-08-23T19:48:33.393Z,4.95
2023-08-23T19:53:38.680Z,3.70
2023-08-23T19:58:41.775Z,4.53
2023-08-23T20:03:44.668Z,6.25
2023-08-23T20:08:48.981Z,5.53
2023-08-23T20:13:51.780Z,8.85
2023-08-23T20:18:56.124Z,6.10
2023-08-23T20:24:00.407Z,5.38
2023-08-23T20:29:03.402Z,5.40
2023-08-23T20:34:06.219Z,5.72
2023-08-23T20:39:10.341Z,7.15
2023-08-23T20:44:13.142Z,6.68
2023-08-23T20:49:15.989Z,8.27
2023-08-23T20:54:20.357Z,10.27
2023-08-23T20:59:23.156Z,9.70
2023-08-23T21:04:27.187Z,9.48
2023-08-23T21:09:31.568Z,10.30
2023-08-23T21:14:34.407Z,8.10
2023-08-23T21:19:37.244Z,9.07
2023-08-23T21:24:41.330Z,7.88
2023-08-23T21:29:44.061Z,9.05
2023-08-23T21:34:46.860Z,8.95
2023-08-23T21:39:57.689Z,8.73
2023-08-23T21:45:00.611Z,9.90
2023-08-23T21:50:03.530Z,10.40
2023-08-23T21:55:08.502Z,10.35
2023-08-23T22:00:13.367Z,10.80
2023-08-23T22:05:16.318Z,12.07
2023-08-23T22:10:20.686Z,12.25
2023-08-23T22:15:23.472Z,7.28
2023-08-23T22:20:28.016Z,7.85
2023-08-23T22:25:32.173Z,7.57
2023-08-23T22:30:34.963Z,12.20
2023-08-23T22:35:39.327Z,12.48
2023-08-23T22:40:50.364Z,15.95
2023-08-23T22:45:55.253Z,8.27
2023-08-23T22:50:58.219Z,12.38
2023-08-23T22:56:03.797Z,10.50
2023-08-23T23:01:06.602Z,10.77
2023-08-23T23:06:09.830Z,12.40
2023-08-23T23:11:13.957Z,12.88
2023-08-23T23:16:16.781Z,14.40
2023-08-23T23:21:20.076Z,13.10
2023-08-23T23:26:24.195Z,11.50
2023-08-23T23:31:27.018Z,13.52
2023-08-23T23:36:32.141Z,11.60
2023-08-23T23:41:36.287Z,12.35
2023-08-23T23:46:40.396Z,10.95
2023-08-23T23:51:43.167Z,9.50
2023-08-23T23:56:47.312Z,9.52
